createdAt,value
2019-05-05T00:00:38.686Z,5.47
2019-05-05T00:03:15.244Z,5.63
2019-05-05T00:05:44.425Z,6.97
2019-05-05T00:08:15.288Z,6.17
2019-05-05T00:11:04.931Z,6.37
2019-05-05T00:13:55.200Z,6.83
2019-05-05T00:16:44.629Z,8.53
2019-05-05T00:19:15.160Z,6.73
2019-05-05T00:21:44.609Z,6.17
2019-05-05T00:24:15.038Z,6.13
2019-05-05T00:26:43.351Z,6.00
2019-05-05T00:29:11.816Z,6.20
2019-05-05T00:31:40.360Z,7.53
2019-05-05T00:34:08.915Z,6.33
2019-05-05T00:36:37.367Z,6.70
2019-05-05T00:39:07.258Z,7.13
2019-05-05T00:41:35.764Z,7.70
2019-05-05T00:44:04.837Z,7.17
2019-05-05T00:47:05.322Z,6.63
2019-05-05T00:49:45.522Z,6.23
2019-05-05T00:52:05.172Z,7.30
2019-05-05T00:54:34.710Z,7.13
2019-05-05T00:57:04.424Z,6.73
2019-05-05T00:59:34.796Z,5.83
2019-05-05T01:02:25.750Z,6.63
2019-05-05T01:05:00.776Z,6.73
2019-05-05T01:07:29.252Z,6.80
2019-05-05T01:09:57.675Z,7.03
2019-05-05T01:12:26.170Z,7.43
2019-05-05T01:14:55.242Z,6.83
2019-05-05T01:17:25.312Z,6.07
2019-05-05T01:20:03.144Z,6.50
2019-05-05T01:22:24.997Z,6.37
2019-05-05T01:24:55.436Z,6.17
2019-05-05T01:27:25.339Z,7.00
2019-05-05T01:29:54.699Z,6.30
2019-05-05T01:32:27.396Z,6.70
2019-05-05T01:34:55.926Z,7.20
2019-05-05T01:37:39.347Z,6.90
2019-05-05T01:40:30.351Z,6.43
2019-05-05T01:42:58.746Z,7.13
2019-05-05T01:45:27.195Z,6.67
2019-05-05T01:47:55.627Z,7.47
2019-05-05T01:50:24.854Z,6.87
2019-05-05T01:52:55.407Z,6.30
2019-05-05T01:55:25.217Z,7.10
2019-05-05T01:57:54.422Z,6.33
2019-05-05T02:00:22.854Z,6.00
2019-05-05T02:02:51.274Z,6.63
2019-05-05T02:05:19.746Z,7.37
2019-05-05T02:07:48.174Z,5.90
2019-05-05T02:10:16.715Z,6.20
2019-05-05T02:12:45.154Z,6.73
2019-05-05T02:15:14.924Z,5.80
2019-05-05T02:17:44.619Z,6.13
2019-05-05T02:20:34.149Z,5.63
2019-05-05T02:23:04.541Z,7.47
2019-05-05T02:25:34.566Z,7.57
2019-05-05T02:28:04.477Z,6.23
2019-05-05T02:30:40.669Z,7.03
2019-05-05T02:33:11.508Z,7.33
2019-05-05T02:35:39.951Z,6.50
2019-05-05T02:38:08.376Z,7.43
2019-05-05T02:40:36.838Z,7.27
2019-05-05T02:43:06.051Z,7.07
2019-05-05T02:45:38.889Z,6.70
2019-05-05T02:48:15.418Z,8.10
2019-05-05T02:51:00.086Z,7.20
2019-05-05T02:53:24.825Z,7.33
2019-05-05T02:55:54.131Z,7.17
2019-05-05T02:58:24.390Z,8.07
2019-05-05T03:01:09.107Z,7.63
2019-05-05T03:03:38.658Z,7.40
2019-05-05T03:06:07.020Z,9.00
2019-05-05T03:08:36.342Z,7.27
2019-05-05T03:11:05.607Z,7.40
2019-05-05T03:13:35.266Z,7.40
2019-05-05T03:16:09.230Z,8.23
2019-05-05T03:18:37.661Z,8.17
2019-05-05T03:21:07.451Z,8.87
2019-05-05T03:23:36.130Z,7.67
2019-05-05T03:26:04.578Z,8.17
2019-05-05T03:28:43.729Z,8.23
2019-05-05T03:31:16.121Z,8.37
2019-05-05T03:33:45.891Z,9.87
2019-05-05T03:36:13.986Z,10.47
2019-05-05T03:38:44.378Z,9.10
2019-05-05T03:41:20.578Z,10.10
2019-05-05T03:44:07.866Z,9.60
2019-05-05T03:46:36.599Z,9.03
2019-05-05T03:49:05.345Z,9.23
2019-05-05T03:51:34.535Z,9.20
2019-05-05T03:54:04.300Z,10.13
2019-05-05T03:56:34.707Z,9.53
2019-05-05T03:59:04.901Z,9.83
2019-05-05T04:01:36.333Z,10.63
2019-05-05T04:04:24.514Z,10.57
2019-05-05T04:06:54.059Z,9.03
2019-05-05T04:09:24.283Z,9.00
2019-05-05T04:11:53.933Z,9.07
2019-05-05T04:14:24.697Z,9.30
2019-05-05T04:17:09.762Z,9.43
2019-05-05T04:19:40.278Z,9.67
2019-05-05T04:22:08.707Z,9.60
2019-05-05T04:24:37.160Z,8.40
2019-05-05T04:27:05.589Z,9.50
2019-05-05T04:29:34.512Z,9.63
2019-05-05T04:32:04.598Z,9.13
2019-05-05T04:34:34.747Z,9.37
2019-05-05T04:37:04.107Z,9.80
2019-05-05T04:39:34.360Z,9.90
2019-05-05T04:42:04.833Z,8.97
2019-05-05T04:44:34.690Z,9.30
2019-05-05T04:47:09.799Z,9.50
2019-05-05T04:50:04.321Z,9.40
2019-05-05T04:52:34.316Z,9.73
2019-05-05T04:55:03.890Z,9.33
2019-05-05T04:57:32.426Z,10.17
2019-05-05T05:00:00.992Z,9.83
2019-05-05T05:02:49.474Z,9.83
2019-05-05T05:05:25.539Z,9.67
2019-05-05T05:07:55.404Z,9.97
2019-05-05T05:10:24.306Z,9.43
2019-05-05T05:12:54.001Z,9.23
2019-05-05T05:15:23.908Z,8.73
2019-05-05T05:18:14.925Z,9.23
2019-05-05T05:20:44.280Z,9.50
2019-05-05T05:23:14.117Z,9.17
2019-05-05T05:25:43.811Z,9.80
2019-05-05T05:28:14.388Z,9.00
2019-05-05T05:30:43.928Z,9.27
2019-05-05T05:33:15.393Z,8.40
2019-05-05T05:35:44.226Z,8.43
2019-05-05T05:38:14.064Z,8.30
2019-05-05T05:40:47.777Z,8.93
2019-05-05T05:43:20.595Z,7.53
2019-05-05T05:46:13.600Z,7.87
2019-05-05T05:49:04.569Z,8.47
2019-05-05T05:51:34.107Z,7.80
2019-05-05T05:54:03.771Z,7.27
2019-05-05T05:56:34.174Z,7.70
2019-05-05T05:59:03.630Z,7.77
2019-05-05T06:01:34.408Z,7.90
2019-05-05T06:04:04.058Z,6.73
2019-05-05T06:06:34.652Z,7.73
2019-05-05T06:09:04.281Z,7.77
2019-05-05T06:11:34.441Z,7.63
2019-05-05T06:14:04.008Z,7.60
2019-05-05T06:16:34.128Z,7.60
2019-05-05T06:19:03.616Z,7.60
2019-05-05T06:21:33.753Z,7.27
2019-05-05T06:24:08.165Z,6.73
2019-05-05T06:26:36.602Z,6.83
2019-05-05T06:29:05.051Z,6.67
2019-05-05T06:31:34.256Z,6.80
2019-05-05T06:34:03.700Z,7.07
2019-05-05T06:36:34.095Z,8.00
2019-05-05T06:39:04.550Z,7.60
2019-05-05T06:41:49.174Z,7.27
2019-05-05T06:44:39.678Z,8.00
2019-05-05T06:47:23.674Z,7.13
2019-05-05T06:49:54.163Z,7.07
2019-05-05T06:52:24.729Z,7.30
2019-05-05T06:54:54.291Z,7.53
2019-05-05T06:57:24.071Z,7.33
2019-05-05T06:59:54.385Z,8.07
2019-05-05T07:02:23.823Z,6.80
2019-05-05T07:04:54.493Z,6.47
2019-05-05T07:07:23.643Z,7.10
2019-05-05T07:09:54.167Z,6.47
2019-05-05T07:12:24.201Z,7.17
2019-05-05T07:14:53.817Z,7.17
2019-05-05T07:17:24.019Z,7.33
2019-05-05T07:19:54.367Z,6.97
2019-05-05T07:22:24.397Z,6.93
2019-05-05T07:24:54.195Z,7.40
2019-05-05T07:27:24.321Z,7.57
2019-05-05T07:29:54.170Z,7.43
2019-05-05T07:32:28.062Z,7.50
2019-05-05T07:35:07.578Z,7.33
2019-05-05T07:37:36.039Z,6.77
2019-05-05T07:40:05.263Z,8.10
2019-05-05T07:42:33.742Z,6.67
2019-05-05T07:45:04.063Z,6.73
2019-05-05T07:47:34.149Z,7.20
2019-05-05T07:50:04.150Z,7.03
2019-05-05T07:52:34.385Z,7.20
2019-05-05T07:55:03.597Z,6.07
2019-05-05T07:57:34.043Z,8.33
2019-05-05T08:00:02.518Z,6.97
2019-05-05T08:02:30.978Z,7.57
2019-05-05T08:04:59.354Z,7.43
2019-05-05T08:07:27.826Z,7.40
2019-05-05T08:09:56.322Z,6.60
2019-05-05T08:12:25.053Z,7.90
2019-05-05T08:14:53.790Z,7.07
2019-05-05T08:17:44.735Z,9.03
2019-05-05T08:20:19.354Z,8.90
2019-05-05T08:22:47.607Z,8.33
2019-05-05T08:25:39.219Z,8.80
2019-05-05T08:28:18.103Z,8.63
2019-05-05T08:30:54.608Z,8.63
2019-05-05T08:33:24.140Z,9.07
2019-05-05T08:35:54.131Z,8.07
2019-05-05T08:38:24.270Z,8.17
2019-05-05T08:40:54.356Z,9.03
2019-05-05T08:43:24.171Z,7.97
2019-05-05T08:45:55.413Z,7.77
2019-05-05T08:48:24.634Z,9.93
2019-05-05T08:50:54.121Z,8.33
2019-05-05T08:53:24.329Z,7.63
2019-05-05T08:55:54.674Z,8.43
2019-05-05T08:58:23.782Z,8.27
2019-05-05T09:00:53.679Z,8.83
2019-05-05T09:03:24.222Z,9.03
2019-05-05T09:05:54.259Z,8.80
2019-05-05T09:08:24.141Z,8.63
2019-05-05T09:10:55.008Z,8.73
2019-05-05T09:13:24.656Z,8.50
2019-05-05T09:15:54.407Z,9.03
2019-05-05T09:18:24.616Z,8.23
2019-05-05T09:20:53.784Z,9.20
2019-05-05T09:23:24.017Z,7.53
2019-05-05T09:26:18.182Z,7.27
2019-05-05T09:29:14.761Z,7.80
2019-05-05T09:31:45.097Z,7.20
2019-05-05T09:34:14.656Z,7.73
2019-05-05T09:36:43.990Z,7.57
2019-05-05T09:39:13.803Z,6.77
2019-05-05T09:41:44.461Z,6.80
2019-05-05T09:44:13.601Z,8.73
2019-05-05T09:46:42.176Z,7.53
2019-05-05T09:49:10.647Z,7.43
2019-05-05T09:51:39.138Z,7.43
2019-05-05T09:54:14.035Z,6.63
2019-05-05T09:56:37.787Z,6.70
2019-05-05T09:59:06.264Z,7.87
2019-05-05T10:01:34.973Z,6.00
2019-05-05T10:04:09.922Z,6.20
2019-05-05T10:06:38.772Z,7.07
2019-05-05T10:09:08.273Z,6.43
2019-05-05T10:11:36.930Z,7.00
2019-05-05T10:14:05.620Z,6.73
2019-05-05T10:16:34.336Z,6.40
2019-05-05T10:19:04.508Z,6.93
2019-05-05T10:21:33.891Z,6.57
2019-05-05T10:24:06.331Z,4.87
2019-05-05T10:26:34.907Z,3.77
2019-05-05T10:29:04.242Z,4.67
2019-05-05T10:31:34.600Z,4.03
2019-05-05T10:34:06.554Z,4.07
2019-05-05T10:36:35.046Z,4.60
2019-05-05T10:39:12.754Z,3.77
2019-05-05T10:41:41.254Z,3.57
2019-05-05T10:44:09.880Z,3.87
2019-05-05T10:46:38.372Z,3.83
2019-05-05T10:49:06.876Z,4.20
2019-05-05T10:51:35.374Z,3.73
2019-05-05T10:54:04.090Z,4.27
2019-05-05T10:56:34.448Z,3.90
2019-05-05T10:59:03.941Z,4.17
2019-05-05T11:01:32.658Z,3.80
2019-05-05T11:04:01.086Z,3.40
2019-05-05T11:06:29.578Z,3.93
2019-05-05T11:08:58.180Z,3.90
2019-05-05T11:11:27.466Z,3.63
2019-05-05T11:13:56.557Z,3.90
2019-05-05T11:16:25.554Z,3.97
2019-05-05T11:18:54.196Z,4.30
2019-05-05T11:21:23.673Z,4.33
2019-05-05T11:23:54.003Z,3.50
2019-05-05T11:26:24.533Z,5.47
2019-05-05T11:28:53.821Z,4.40
2019-05-05T11:31:23.933Z,4.73
2019-05-05T11:34:10.655Z,4.30
2019-05-05T11:37:01.135Z,4.67
2019-05-05T11:39:29.557Z,5.13
2019-05-05T11:41:58.074Z,5.60
2019-05-05T11:44:26.555Z,5.57
2019-05-05T11:46:54.986Z,5.30
2019-05-05T11:49:24.502Z,5.70
2019-05-05T11:51:54.245Z,5.97
2019-05-05T11:54:25.162Z,4.90
2019-05-05T11:56:54.040Z,5.00
2019-05-05T11:59:23.844Z,5.83
2019-05-05T12:01:54.676Z,5.83
2019-05-05T12:04:23.942Z,6.80
2019-05-05T12:06:52.530Z,5.83
2019-05-05T12:09:30.046Z,5.20
2019-05-05T12:11:58.650Z,6.00
2019-05-05T12:14:28.736Z,5.37
2019-05-05T12:16:57.392Z,5.27
2019-05-05T12:19:25.824Z,5.13
2019-05-05T12:21:54.888Z,5.70
2019-05-05T12:24:27.679Z,5.07
2019-05-05T12:27:06.653Z,5.77
2019-05-05T12:29:39.263Z,5.17
2019-05-05T12:32:07.674Z,5.07
2019-05-05T12:34:36.178Z,4.57
2019-05-05T12:37:05.297Z,5.30
2019-05-05T12:39:33.903Z,4.87
2019-05-05T12:42:04.623Z,4.70
2019-05-05T12:44:37.755Z,5.17
2019-05-05T12:47:16.531Z,4.83
2019-05-05T12:49:44.995Z,4.73
2019-05-05T12:52:13.987Z,4.70
2019-05-05T12:54:44.081Z,5.20
2019-05-05T12:57:13.709Z,5.03
2019-05-05T12:59:44.249Z,5.40
2019-05-05T13:02:14.090Z,4.83
2019-05-05T13:04:42.506Z,5.23
2019-05-05T13:07:11.023Z,4.87
2019-05-05T13:09:39.595Z,4.97
2019-05-05T13:12:08.081Z,5.10
2019-05-05T13:14:36.514Z,4.77
2019-05-05T13:17:05.019Z,6.07
2019-05-05T13:19:52.586Z,5.43
2019-05-05T13:22:38.921Z,5.03
2019-05-05T13:25:22.815Z,6.40
2019-05-05T13:27:51.194Z,5.07
2019-05-05T13:30:20.575Z,4.90
2019-05-05T13:32:49.026Z,5.00
2019-05-05T13:35:18.549Z,4.93
2019-05-05T13:37:47.035Z,6.27
2019-05-05T13:40:16.559Z,5.13
2019-05-05T13:42:45.009Z,6.03
2019-05-05T13:45:38.392Z,5.33
2019-05-05T13:48:09.966Z,6.40
2019-05-05T13:50:40.866Z,5.60
2019-05-05T13:53:09.291Z,5.53
2019-05-05T13:55:38.042Z,6.87
2019-05-05T13:58:08.722Z,6.20
2019-05-05T14:00:36.639Z,5.60
2019-05-05T14:03:05.183Z,6.77
2019-05-05T14:05:34.488Z,5.23
2019-05-05T14:08:04.211Z,5.60
2019-05-05T14:10:36.042Z,5.57
2019-05-05T14:13:04.646Z,4.43
2019-05-05T14:15:34.105Z,5.27
2019-05-05T14:18:03.779Z,4.90
2019-05-05T14:20:34.333Z,4.90
2019-05-05T14:23:03.905Z,4.97
2019-05-05T14:25:32.641Z,4.60
2019-05-05T14:28:01.144Z,4.73
2019-05-05T14:30:55.194Z,4.33
2019-05-05T14:33:26.699Z,4.83
2019-05-05T14:36:11.179Z,5.30
2019-05-05T14:38:46.135Z,4.63
2019-05-05T14:41:14.758Z,6.20
2019-05-05T14:43:43.872Z,4.77
2019-05-05T14:46:14.391Z,4.93
2019-05-05T14:48:45.221Z,5.00
2019-05-05T14:51:14.533Z,5.83
2019-05-05T14:53:43.770Z,5.37
2019-05-05T14:56:13.568Z,5.13
2019-05-05T14:58:43.823Z,6.13
2019-05-05T15:01:14.441Z,5.80
2019-05-05T15:03:44.489Z,6.30
2019-05-05T15:06:29.814Z,5.03
2019-05-05T15:09:05.304Z,5.03
2019-05-05T15:12:11.051Z,5.23
2019-05-05T15:14:39.610Z,4.70
2019-05-05T15:17:08.113Z,4.50
2019-05-05T15:19:36.566Z,3.63
2019-05-05T15:22:05.128Z,19.97
2019-05-05T15:24:33.637Z,4.87
2019-05-05T15:27:02.118Z,4.30
2019-05-05T15:29:30.560Z,4.97
2019-05-05T15:31:59.139Z,4.20
2019-05-05T15:34:27.530Z,4.67
2019-05-05T15:36:55.999Z,5.43
2019-05-05T15:39:24.738Z,5.90
2019-05-05T15:41:54.147Z,5.73
2019-05-05T15:44:24.156Z,5.83
2019-05-05T15:46:55.702Z,5.90
2019-05-05T15:49:22.898Z,6.07
2019-05-05T15:51:51.428Z,5.33
2019-05-05T15:54:19.805Z,6.30
2019-05-05T15:56:48.254Z,5.13
2019-05-05T15:59:16.620Z,5.43
2019-05-05T16:01:44.974Z,5.37
2019-05-05T16:04:14.104Z,5.37
2019-05-05T16:06:44.470Z,5.23
2019-05-05T16:09:13.712Z,5.57
2019-05-05T16:11:44.095Z,5.10
2019-05-05T16:14:14.316Z,5.83
2019-05-05T16:17:06.319Z,6.40
2019-05-05T16:19:55.581Z,5.87
2019-05-05T16:22:36.148Z,4.90
2019-05-05T16:25:13.817Z,6.37
2019-05-05T16:27:44.019Z,5.53
2019-05-05T16:30:14.464Z,5.87
2019-05-05T16:32:42.820Z,5.90
2019-05-05T16:35:11.982Z,6.13
2019-05-05T16:37:40.479Z,6.03
2019-05-05T16:40:09.386Z,5.77
2019-05-05T16:42:37.871Z,8.37
2019-05-05T16:45:06.459Z,10.30
2019-05-05T16:47:35.045Z,10.23
2019-05-05T16:50:04.205Z,10.23
2019-05-05T16:52:37.750Z,7.80
2019-05-05T16:55:13.462Z,8.47
2019-05-05T16:57:43.726Z,5.90
2019-05-05T17:00:12.528Z,5.17
2019-05-05T17:02:41.017Z,6.23
2019-05-05T17:05:09.830Z,8.50
2019-05-05T17:07:38.300Z,9.50
2019-05-05T17:10:06.870Z,4.50
2019-05-05T17:12:35.447Z,4.50
2019-05-05T17:15:21.795Z,5.37
2019-05-05T17:18:12.561Z,5.97
2019-05-05T17:20:49.360Z,4.43
2019-05-05T17:23:18.339Z,8.20
2019-05-05T17:25:46.783Z,4.03
2019-05-05T17:28:15.656Z,4.63
2019-05-05T17:30:44.202Z,3.73
2019-05-05T17:33:14.401Z,6.23
2019-05-05T17:35:43.035Z,4.33
2019-05-05T17:38:14.345Z,4.00
2019-05-05T17:41:01.262Z,7.27
2019-05-05T17:43:47.478Z,5.07
2019-05-05T17:46:24.243Z,6.47
2019-05-05T17:49:14.024Z,4.50
2019-05-05T17:51:46.058Z,4.57
2019-05-05T17:54:46.154Z,4.77
2019-05-05T17:57:14.623Z,5.50
2019-05-05T17:59:55.467Z,4.23
2019-05-05T18:02:24.123Z,4.50
2019-05-05T18:04:54.082Z,4.17
2019-05-05T18:07:40.997Z,5.20
2019-05-05T18:10:17.571Z,4.63
2019-05-05T18:13:04.234Z,4.20
2019-05-05T18:15:50.452Z,4.43
2019-05-05T18:18:18.971Z,4.17
2019-05-05T18:20:47.473Z,4.10
2019-05-05T18:23:15.983Z,4.23
2019-05-05T18:25:44.570Z,5.13
2019-05-05T18:28:19.365Z,4.77
2019-05-05T18:30:44.407Z,5.40
2019-05-05T18:33:13.689Z,5.60
2019-05-05T18:35:44.323Z,5.40
2019-05-05T18:38:13.764Z,4.80
2019-05-05T18:40:43.416Z,4.77
2019-05-05T18:43:20.691Z,4.47
2019-05-05T18:46:00.598Z,5.03
2019-05-05T18:48:31.243Z,4.50
2019-05-05T18:50:59.711Z,4.90
2019-05-05T18:53:28.295Z,5.67
2019-05-05T18:55:56.749Z,5.13
2019-05-05T18:58:29.705Z,4.70
2019-05-05T19:01:13.495Z,5.10
2019-05-05T19:04:01.667Z,5.03
2019-05-05T19:06:48.045Z,5.53
2019-05-05T19:09:19.605Z,7.27
2019-05-05T19:11:48.063Z,5.10
2019-05-05T19:14:16.638Z,6.70
2019-05-05T19:16:47.434Z,5.40
2019-05-05T19:19:16.106Z,5.43
2019-05-05T19:21:48.464Z,6.83
2019-05-05T19:24:19.151Z,4.93
2019-05-05T19:26:48.117Z,5.90
2019-05-05T19:29:16.649Z,6.33
2019-05-05T19:31:45.143Z,5.40
2019-05-05T19:34:15.728Z,5.20
2019-05-05T19:36:44.921Z,5.70
2019-05-05T19:39:13.857Z,5.73
2019-05-05T19:41:44.302Z,5.10
2019-05-05T19:44:14.544Z,5.67
2019-05-05T19:46:57.447Z,5.97
2019-05-05T19:49:25.889Z,5.90
2019-05-05T19:51:54.336Z,7.10
2019-05-05T19:54:22.902Z,6.93
2019-05-05T19:56:51.463Z,6.93
2019-05-05T19:59:22.611Z,6.03
2019-05-05T20:01:51.116Z,6.47
2019-05-05T20:04:19.596Z,6.30
2019-05-05T20:06:48.055Z,5.40
2019-05-05T20:09:16.683Z,6.70
2019-05-05T20:11:45.288Z,5.53
2019-05-05T20:14:15.121Z,6.17
2019-05-05T20:17:04.235Z,5.57
2019-05-05T20:19:36.581Z,5.63
2019-05-05T20:22:05.150Z,5.83
2019-05-05T20:24:33.856Z,5.73
2019-05-05T20:27:04.534Z,5.50
2019-05-05T20:29:37.081Z,5.60
2019-05-05T20:32:04.319Z,5.27
2019-05-05T20:34:38.125Z,5.20
2019-05-05T20:37:09.016Z,7.47
2019-05-05T20:39:37.619Z,4.80
2019-05-05T20:42:06.463Z,5.17
2019-05-05T20:44:35.094Z,5.60
2019-05-05T20:47:04.472Z,5.00
2019-05-05T20:49:34.625Z,4.90
2019-05-05T20:52:03.835Z,5.53
2019-05-05T20:54:32.448Z,5.03
2019-05-05T20:57:01.065Z,5.27
2019-05-05T20:59:31.023Z,5.40
2019-05-05T21:01:59.892Z,5.33
2019-05-05T21:04:28.386Z,4.70
2019-05-05T21:06:56.878Z,4.73
2019-05-05T21:09:25.371Z,5.70
2019-05-05T21:11:54.830Z,5.40
2019-05-05T21:14:33.698Z,4.97
2019-05-05T21:19:50.013Z,6.20
2019-05-05T21:22:34.468Z,4.10
2019-05-05T21:25:04.841Z,4.67
2019-05-05T21:27:34.095Z,5.23
2019-05-05T21:30:04.044Z,5.50
2019-05-05T21:32:34.025Z,5.37
2019-05-05T21:35:02.705Z,5.10
2019-05-05T21:37:33.913Z,4.93
2019-05-05T21:40:04.458Z,5.87
2019-05-05T21:42:32.168Z,5.00
2019-05-05T21:45:00.591Z,5.63
2019-05-05T21:47:29.096Z,5.43
2019-05-05T21:49:57.697Z,5.70
2019-05-05T21:52:35.092Z,5.13
2019-05-05T21:55:11.379Z,6.40
2019-05-05T21:57:53.408Z,5.67
2019-05-05T22:00:39.885Z,5.57
2019-05-05T22:03:08.891Z,5.93
2019-05-05T22:05:37.945Z,6.27
2019-05-05T22:08:06.429Z,5.73
2019-05-05T22:10:34.947Z,5.30
2019-05-05T22:13:04.863Z,5.27
2019-05-05T22:15:35.573Z,5.83
2019-05-05T22:18:03.880Z,5.93
2019-05-05T22:20:38.214Z,5.43
2019-05-05T22:23:06.776Z,6.47
2019-05-05T22:25:35.178Z,5.63
2019-05-05T22:28:04.289Z,5.17
2019-05-05T22:30:34.414Z,5.73
2019-05-05T22:33:05.978Z,5.57
2019-05-05T22:35:34.931Z,5.47
2019-05-05T22:38:05.875Z,6.03
2019-05-05T22:40:34.661Z,5.60
2019-05-05T22:43:03.693Z,5.67
2019-05-05T22:45:34.246Z,6.00
2019-05-05T22:48:04.631Z,5.67
2019-05-05T22:50:34.047Z,6.43
2019-05-05T22:53:02.630Z,5.90
2019-05-05T22:55:31.091Z,6.10
2019-05-05T22:57:59.559Z,6.33
2019-05-05T23:00:29.637Z,6.07
2019-05-05T23:03:17.543Z,6.10
2019-05-05T23:05:54.709Z,5.87
2019-05-05T23:08:24.308Z,6.17
2019-05-05T23:10:54.444Z,6.50
2019-05-05T23:13:23.039Z,6.20
2019-05-05T23:15:58.759Z,5.70
2019-05-05T23:18:27.807Z,5.87
2019-05-05T23:21:21.533Z,6.50
2019-05-05T23:24:17.672Z,7.03
2019-05-05T23:26:46.654Z,7.13
2019-05-05T23:29:15.021Z,5.83
2019-05-05T23:31:44.433Z,6.23
2019-05-05T23:34:14.758Z,7.40
2019-05-05T23:36:44.326Z,6.43
2019-05-05T23:39:13.617Z,5.80
2019-05-05T23:41:42.250Z,5.77
2019-05-05T23:44:10.642Z,6.73
2019-05-05T23:46:39.129Z,6.50
2019-05-05T23:49:07.585Z,5.83
2019-05-05T23:51:35.976Z,6.13
2019-05-05T23:54:04.545Z,5.67
2019-05-05T23:56:34.787Z,6.23
2019-05-05T23:59:04.630Z,6.20
